This is the latest recevied weather packets stored in our database for station/object 9W2KHE-13. If no packets are shown the sender has not sent any weather packets the latest 10 day(s).
| Time | Temp. | Humidity | Pressure | Rain* | Wind** | Luminosity | Snow |
|---|---|---|---|---|---|---|---|
| 1777695119 | 31.67° C | 65% | 1012.3 hPa | 0 mm | - | - | - |
| 1777694818 | 31.67° C | 65% | 1012.4 hPa | 0 mm | - | - | - |
| 1777694517 | 31.67° C | 66% | 1012.5 hPa | 0 mm | - | - | - |
| 1777693614 | 31.11° C | 67% | 1012.3 hPa | 0 mm | - | - | - |
| 1777693312 | 31.11° C | 68% | 1012.3 hPa | 0 mm | - | - | - |
| 1777692712 | 31.11° C | 68% | 1012.7 hPa | 0 mm | - | - | - |
| 1777692409 | 31.11° C | 69% | 1012.7 hPa | 0 mm | - | - | - |
| 1777692108 | 30.56° C | 69% | 1012.7 hPa | 0 mm | - | - | - |
| 1777691807 | 30.56° C | 69% | 1012.8 hPa | 0 mm | - | - | - |
| 1777691506 | 30.56° C | 70% | 1012.8 hPa | 0 mm | - | - | - |
| 1777691206 | 30.56° C | 70% | 1012.9 hPa | 0 mm | - | - | - |
| 1777690603 | 30° C | 70% | 1012.8 hPa | 0 mm | - | - | - |
| 1777690302 | 30° C | 71% | 1012.8 hPa | 0 mm | - | - | - |
| 1777690001 | 30° C | 71% | 1012.9 hPa | 0 mm | - | - | - |
| 1777689399 | 30° C | 72% | 1012.9 hPa | 0 mm | - | - | - |
| 1777689098 | 29.44° C | 72% | 1012.7 hPa | 0 mm | - | - | - |
| 1777688196 | 29.44° C | 73% | 1012.7 hPa | 0 mm | - | - | - |
| 1777674346 | 27.78° C | 72% | 1010.3 hPa | 0 mm | - | - | - |
| 1777674045 | 27.78° C | 72% | 1010.3 hPa | 0 mm | - | - | - |
| 1777673745 | 27.78° C | 72% | 1010.2 hPa | 0 mm | - | - | - |
| 1777673444 | 27.78° C | 72% | 1010.1 hPa | 0 mm | - | - | - |
| 1777672841 | 27.78° C | 72% | 1010.1 hPa | 0 mm | - | - | - |
| 1777672540 | 28.33° C | 72% | 1010.2 hPa | 0 mm | - | - | - |
| 1777671035 | 28.33° C | 72% | 1009.9 hPa | 0 mm | - | - | - |
| 1777670433 | 28.33° C | 72% | 1009.9 hPa | 0 mm | - | - | - |
* Rain since midnight (hover to see other rain measurements)
** Current wind speed in m/s (hover to see current wind gust speed)